| time (UTC) | temp C | wind direction | speed KPH | gust KPH | rain 1hr cm | rain 24hr cm | rain mn cm | humidity % | barometer mb |
| 20260507200848 | 17 | 203 | 8.0 | 12.9 | 0.00 | 0.38 | 0.05 | 41 | 1005.3 |
| 20260507200319 | 17 | 274 | 6.4 | 9.7 | 0.00 | 0.38 | 0.05 | 42 | 1005.3 |
| 20260507195822 | 18 | 270 | 12.9 | 16.1 | 0.00 | 0.41 | 0.05 | 41 | 1005.3 |
| 20260507195321 | 18 | 225 | 11.3 | 14.5 | 0.00 | 0.41 | 0.05 | 41 | 1005.4 |
| 20260507194836 | 18 | 203 | 11.3 | 11.3 | 0.00 | 0.41 | 0.05 | 41 | 1005.4 |
| 20260507194331 | 18 | 203 | 11.3 | 12.9 | 0.00 | 0.41 | 0.05 | 40 | 1005.5 |
| 20260507193822 | 17 | 225 | 11.3 | 16.1 | 0.00 | 0.41 | 0.05 | 40 | 1005.5 |
| 20260507193331 | 18 | 270 | 8.0 | 9.7 | 0.00 | 0.41 | 0.05 | 39 | 1005.5 |
| 20260507192842 | 18 | 207 | 11.3 | 14.5 | 0.00 | 0.41 | 0.05 | 40 | 1005.5 |
| 20260507192331 | 18 | 16.1 | 16.1 | 0.00 | 0.43 | 0.05 | 41 | ||
| 20260507191822 | 18 | 180 | 12.9 | 14.5 | 0.00 | 0.43 | 0.05 | 40 | 1005.7 |
| 20260507191331 | 18 | 225 | 8.0 | 8.0 | 0.00 | 0.46 | 0.05 | 40 | 1005.7 |
| 20260507190817 | 18 | 158 | 11.3 | 16.1 | 0.00 | 0.46 | 0.05 | 39 | 1005.9 |
| 20260507190345 | 18 | 203 | 8.0 | 8.0 | 0.00 | 0.46 | 0.05 | 40 | 1005.9 |
| 20260507185816 | 18 | 255 | 12.9 | 16.1 | 0.00 | 0.48 | 0.05 | 39 | 1005.9 |
| 20260507185325 | 18 | 213 | 9.7 | 11.3 | 0.00 | 0.48 | 0.05 | 39 | 1005.9 |
| 20260507184836 | 18 | 281 | 11.3 | 11.3 | 0.00 | 0.51 | 0.05 | 39 | 1005.9 |
| 20260507184325 | 18 | 212 | 11.3 | 12.9 | 0.00 | 0.51 | 0.05 | 39 | 1006.1 |
| 20260507183816 | 18 | 190 | 8.0 | 9.7 | 0.00 | 0.51 | 0.05 | 39 | 1006.1 |
| 20260507183332 | 17 | 6.4 | 9.7 | 0.00 | 0.51 | 0.05 | 39 | 1006.1 | |
| 20260507182823 | 18 | 11.3 | 12.9 | 0.00 | 0.51 | 0.05 | 38 | 1006.0 | |
| 20260507182325 | 18 | 270 | 16.1 | 19.3 | 0.00 | 0.51 | 0.05 | 39 | 1006.0 |
| 20260507181822 | 18 | 270 | 9.7 | 9.7 | 0.00 | 0.51 | 0.05 | 41 | 1006.4 |
| 20260507181359 | 18 | 243 | 12.9 | 14.5 | 0.00 | 0.51 | 0.05 | 39 | 1006.4 |
| 20260507180817 | 18 | 180 | 12.9 | 14.5 | 0.00 | 0.51 | 0.05 | 40 | 1006.4 |
| 20260507180331 | 18 | 180 | 8.0 | 8.0 | 0.00 | 0.51 | 0.05 | 40 | 1006.4 |
| 20260507175842 | 18 | 225 | 8.0 | 9.7 | 0.00 | 0.51 | 0.05 | 39 | 1006.4 |
| 20260507175331 | 18 | 270 | 16.1 | 17.7 | 0.00 | 0.51 | 0.05 | 40 | 1006.4 |
| 20260507174822 | 17 | 203 | 4.8 | 8.0 | 0.00 | 0.51 | 0.05 | 40 | 1006.4 |
| 20260507174330 | 18 | 225 | 9.7 | 11.3 | 0.00 | 0.51 | 0.05 | 40 | 1006.2 |
| 20260507173841 | 17 | 203 | 6.4 | 8.0 | 0.00 | 0.51 | 0.05 | 41 | 1006.2 |
| 20260507173331 | 18 | 225 | 12.9 | 16.1 | 0.00 | 0.51 | 0.05 | 39 | 1006.2 |
| 20260507172821 | 17 | 152 | 4.8 | 4.8 | 0.00 | 0.51 | 0.05 | 41 | 1006.4 |
| 20260507172351 | 17 | 212 | 11.3 | 14.5 | 0.00 | 0.51 | 0.05 | 41 | 1006.4 |
| 20260507171822 | 17 | 158 | 16.1 | 17.7 | 0.00 | 0.51 | 0.05 | 42 | 1006.4 |
| 20260507171330 | 17 | 113 | 6.4 | 9.7 | 0.00 | 0.51 | 0.05 | 43 | 1006.4 |
| 20260507170901 | 17 | 113 | 9.7 | 9.7 | 0.00 | 0.51 | 0.05 | 43 | 1006.6 |
| 20260507170330 | 17 | 248 | 12.9 | 12.9 | 0.00 | 0.51 | 0.05 | 42 | 1006.6 |
| 20260507165842 | 17 | 221 | 12.9 | 14.5 | 0.00 | 0.51 | 0.05 | 43 | 1006.6 |
| 20260507165451 | 17 | 180 | 8.0 | 9.7 | 0.00 | 0.51 | 0.05 | 47 | 1006.9 |
| 20260507164822 | 17 | 180 | 11.3 | 16.1 | 0.00 | 0.51 | 0.05 | 46 | 1006.9 |
| 20260507164325 | 17 | 248 | 14.5 | 22.5 | 0.00 | 0.51 | 0.05 | 46 | 1006.9 |
| 20260507163821 | 17 | 203 | 8.0 | 11.3 | 0.00 | 0.51 | 0.05 | 48 | 1006.9 |
| 20260507163318 | 16 | 133 | 6.4 | 6.4 | 0.00 | 0.51 | 0.05 | 51 | 1007.0 |
| 20260507162815 | 16 | 192 | 11.3 | 12.9 | 0.00 | 0.51 | 0.05 | 50 | 1007.0 |
| 20260507162330 | 16 | 203 | 8.0 | 8.0 | 0.00 | 0.51 | 0.05 | 51 | 1007.0 |
| 20260507161821 | 16 | 270 | 11.3 | 14.5 | 0.00 | 0.51 | 0.05 | 51 | 1007.1 |
| 20260507161330 | 16 | 225 | 11.3 | 12.9 | 0.00 | 0.51 | 0.05 | 53 | 1007.1 |
| 20260507160841 | 16 | 180 | 16.1 | 17.7 | 0.00 | 0.51 | 0.05 | 53 | 1007.1 |
| 20260507160330 | 16 | 248 | 14.5 | 17.7 | 0.00 | 0.51 | 0.05 | 56 | 1007.1 |
| 20260507155856 | 15 | 166 | 11.3 | 14.5 | 0.00 | 0.51 | 0.05 | 58 | 1007.1 |
| 20260507155324 | 16 | 210 | 8.0 | 9.7 | 0.00 | 0.51 | 0.05 | 60 | 1007.0 |
| 20260507154835 | 15 | 195 | 11.3 | 14.5 | 0.00 | 0.51 | 0.05 | 60 | 1007.0 |
| 20260507154323 | 16 | 238 | 6.4 | 8.0 | 0.00 | 0.51 | 0.05 | 59 | 1007.0 |
| 20260507153853 | 16 | 225 | 9.7 | 9.7 | 0.00 | 0.51 | 0.05 | 60 | 1007.0 |
| 20260507153324 | 16 | 158 | 8.0 | 11.3 | 0.00 | 0.51 | 0.05 | 62 | 1007.0 |
| 20260507152833 | 16 | 161 | 9.7 | 11.3 | 0.00 | 0.51 | 0.05 | 62 | 1007.3 |
| 20260507152324 | 16 | 270 | 9.7 | 11.3 | 0.00 | 0.51 | 0.05 | 60 | 1007.3 |
| 20260507151835 | 16 | 113 | 8.0 | 11.3 | 0.00 | 0.51 | 0.05 | 62 | 1007.4 |
| 20260507151331 | 17 | 203 | 6.4 | 6.4 | 0.00 | 0.51 | 0.05 | 63 | 1007.4 |
| 20260507150821 | 16 | 185 | 8.0 | 9.7 | 0.00 | 0.51 | 0.05 | 63 | 1007.6 |
| 20260507150324 | 16 | 180 | 8.0 | 11.3 | 0.00 | 0.51 | 0.05 | 64 | 1007.6 |
| 20260507145821 | 15 | 123 | 11.3 | 12.9 | 0.00 | 0.51 | 0.05 | 65 | 1007.6 |
| 20260507145318 | 15 | 203 | 9.7 | 11.3 | 0.00 | 0.51 | 0.05 | 67 | 1007.7 |
| 20260507144815 | 15 | 180 | 8.0 | 12.9 | 0.00 | 0.51 | 0.05 | 69 | 1007.7 |
| 20260507144338 | 15 | 258 | 6.4 | 6.4 | 0.00 | 0.51 | 0.05 | 67 | 1007.7 |
| 20260507143821 | 15 | 203 | 11.3 | 12.9 | 0.00 | 0.51 | 0.05 | 68 | 1007.7 |
| 20260507143329 | 15 | 135 | 1.6 | 3.2 | 0.00 | 0.51 | 0.05 | 68 | 1007.6 |
| 20260507142820 | 15 | 225 | 6.4 | 8.0 | 0.00 | 0.51 | 0.05 | 68 | 1007.6 |
| 20260507142329 | 15 | 203 | 1.6 | 4.8 | 0.00 | 0.51 | 0.05 | 67 | 1007.6 |
| 20260507141820 | 15 | 213 | 8.0 | 8.0 | 0.00 | 0.51 | 0.05 | 66 | 1007.8 |
| 20260507141329 | 15 | 264 | 8.0 | 9.7 | 0.00 | 0.51 | 0.05 | 66 | 1007.8 |
| 20260507140819 | 14 | 225 | 8.0 | 8.0 | 0.00 | 0.51 | 0.05 | 70 | 1007.8 |
| 20260507140346 | 15 | 175 | 4.8 | 4.8 | 0.00 | 0.51 | 0.05 | 70 | 1007.8 |
| 20260507135824 | 14 | 225 | 6.4 | 6.4 | 0.00 | 0.51 | 0.05 | 72 | 1007.8 |
| 20260507135321 | 14 | 225 | 9.7 | 9.7 | 0.00 | 0.51 | 0.05 | 71 | 1007.7 |
| 20260507134822 | 15 | 270 | 9.7 | 11.3 | 0.00 | 0.51 | 0.05 | 69 | 1007.7 |
| 20260507134325 | 15 | 270 | 8.0 | 9.7 | 0.00 | 0.51 | 0.05 | 69 | 1007.7 |
| 20260507133815 | 15 | 198 | 6.4 | 8.0 | 0.00 | 0.51 | 0.05 | 71 | 1007.7 |
| 20260507133325 | 15 | 270 | 4.8 | 8.0 | 0.00 | 0.51 | 0.05 | 71 | 1007.7 |
| 20260507132815 | 14 | 261 | 4.8 | 6.4 | 0.00 | 0.51 | 0.05 | 72 | 1008.0 |
| 20260507132338 | 14 | 256 | 8.0 | 9.7 | 0.00 | 0.51 | 0.05 | 73 | 1008.0 |
| 20260507131815 | 13 | 236 | 9.7 | 9.7 | 0.00 | 0.51 | 0.05 | 73 | 1008.3 |
| 20260507131324 | 13 | 248 | 3.2 | 4.8 | 0.00 | 0.51 | 0.05 | 75 | 1008.3 |
| 20260507130815 | 13 | 236 | 8.0 | 9.7 | 0.00 | 0.51 | 0.05 | 75 | 1008.4 |
| 20260507130324 | 13 | 180 | 4.8 | 6.4 | 0.00 | 0.51 | 0.05 | 76 | 1008.4 |
| 20260507125836 | 13 | 215 | 6.4 | 8.0 | 0.00 | 0.51 | 0.05 | 78 | 1008.4 |
| 20260507125324 | 13 | 180 | 9.7 | 9.7 | 0.00 | 0.51 | 0.05 | 78 | 1008.5 |
| 20260507124836 | 12 | 239 | 9.7 | 11.3 | 0.00 | 0.51 | 0.05 | 79 | 1008.5 |
| 20260507124325 | 12 | 212 | 8.0 | 8.0 | 0.00 | 0.51 | 0.05 | 80 | 1008.5 |
| 20260507123816 | 12 | 225 | 6.4 | 8.0 | 0.00 | 0.51 | 0.05 | 80 | 1008.5 |
| 20260507123344 | 12 | 214 | 8.0 | 9.7 | 0.00 | 0.51 | 0.05 | 82 | 1008.5 |
| 20260507122834 | 12 | 258 | 9.7 | 12.9 | 0.00 | 0.51 | 0.05 | 83 | 1008.6 |
| 20260507122324 | 12 | 270 | 12.9 | 16.1 | 0.00 | 0.51 | 0.05 | 84 | 1008.6 |
| 20260507121833 | 11 | 225 | 9.7 | 11.3 | 0.00 | 0.51 | 0.05 | 83 | 1008.7 |
| 20260507121324 | 11 | 270 | 12.9 | 14.5 | 0.00 | 0.51 | 0.05 | 86 | 1008.7 |
| 20260507120815 | 11 | 203 | 6.4 | 8.0 | 0.00 | 0.51 | 0.05 | 88 | 1008.7 |
| 20260507120344 | 10 | 242 | 6.4 | 6.4 | 0.00 | 0.51 | 0.05 | 88 | 1008.7 |
| 20260507115815 | 11 | 154 | 6.4 | 8.0 | 0.00 | 0.51 | 0.05 | 89 | 1008.7 |
| 20260507115324 | 11 | 203 | 6.4 | 6.4 | 0.00 | 0.51 | 0.05 | 89 | 1008.5 |
| 20260507114820 | 11 | 214 | 4.8 | 4.8 | 0.00 | 0.51 | 0.05 | 90 | 1008.5 |
| 20260507114317 | 10 | 203 | 4.8 | 4.8 | 0.00 | 0.51 | 0.05 | 93 | 1008.5 |
| 20260507113832 | 10 | 158 | 1.6 | 3.2 | 0.00 | 0.51 | 0.05 | 93 | 1008.5 |
| 20260507113316 | 10 | 203 | 3.2 | 3.2 | 0.00 | 0.51 | 0.05 | 94 | 1008.5 |
| 20260507112825 | 10 | 225 | 6.4 | 6.4 | 0.00 | 0.51 | 0.05 | 95 | 1008.5 |
| 20260507112316 | 10 | 180 | 3.2 | 3.2 | 0.00 | 0.51 | 0.05 | 96 | 1008.5 |
| 20260507111905 | 10 | 190 | 4.8 | 4.8 | 0.00 | 0.51 | 0.05 | 96 | |
| 20260507111316 | 10 | 248 | 3.2 | 4.8 | 0.00 | 0.51 | 0.05 | 96 | 1008.3 |
| 20260507110824 | 10 | 0.0 | 0.0 | 0.00 | 0.51 | 0.05 | 98 | 1008.4 | |
| 20260507110316 | 9 | 0.0 | 0.0 | 0.00 | 0.51 | 0.05 | 98 | 1008.4 | |
| 20260507105825 | 9 | 0.0 | 0.0 | 0.00 | 0.51 | 0.05 | 98 | 1008.4 | |
| 20260507105316 | 9 | 0.0 | 0.0 | 0.00 | 0.51 | 0.05 | 98 | 1008.3 | |
| 20260507104844 | 9 | 194 | 3.2 | 4.8 | 0.00 | 0.51 | 0.05 | 97 | 1008.3 |
| 20260507104315 | 9 | 225 | 3.2 | 3.2 | 0.00 | 0.51 | 0.05 | 98 | 1007.8 |
| 20260507103825 | 9 | 212 | 8.0 | 8.0 | 0.00 | 0.51 | 0.05 | 98 | 1007.8 |
| 20260507103315 | 9 | 236 | 3.2 | 3.2 | 0.00 | 0.51 | 0.05 | 99 | 1007.8 |
| 20260507102825 | 8 | 158 | 1.6 | 3.2 | 0.00 | 0.51 | 0.05 | 99 | 1007.7 |
| 20260507102315 | 8 | 270 | 4.8 | 6.4 | 0.00 | 0.51 | 0.05 | 99 | 1007.7 |
| 20260507101824 | 8 | 180 | 4.8 | 4.8 | 0.00 | 0.51 | 0.05 | 99 | 1007.5 |
| 20260507101315 | 8 | 214 | 3.2 | 4.8 | 0.00 | 0.51 | 0.05 | 99 | 1007.5 |
| 20260507100819 | 8 | 248 | 4.8 | 4.8 | 0.00 | 0.51 | 0.05 | 99 | 1007.6 |
| 20260507100333 | 8 | 203 | 3.2 | 4.8 | 0.00 | 0.51 | 0.05 | 99 | 1007.6 |
| 20260507095824 | 8 | 216 | 4.8 | 4.8 | 0.00 | 0.51 | 0.05 | 99 | 1007.6 |
| 20260507095315 | 8 | 214 | 4.8 | 4.8 | 0.00 | 0.51 | 0.05 | 99 | 1007.4 |
| 20260507094845 | 8 | 228 | 6.4 | 8.0 | 0.00 | 0.51 | 0.05 | 99 | 1007.4 |
| 20260507094315 | 8 | 248 | 6.4 | 6.4 | 0.00 | 0.51 | 0.05 | 99 | 1007.8 |
| 20260507093824 | 8 | 225 | 3.2 | 4.8 | 0.00 | 0.51 | 0.05 | 99 | 1007.8 |
| 20260507093315 | 8 | 194 | 6.4 | 9.7 | 0.00 | 0.51 | 0.05 | 99 | 1007.8 |
| 20260507092844 | 8 | 225 | 4.8 | 6.4 | 0.00 | 0.51 | 0.05 | 99 | 1007.9 |
| 20260507092315 | 9 | 217 | 3.2 | 3.2 | 0.00 | 0.51 | 0.05 | 99 | 1007.9 |
| 20260507091824 | 9 | 203 | 3.2 | 3.2 | 0.00 | 0.51 | 0.05 | 99 | 1007.9 |
| 20260507091315 | 9 | 0.0 | 3.2 | 0.00 | 0.51 | 0.05 | 99 | 1007.9 | |
| 20260507090824 | 9 | 158 | 4.8 | 4.8 | 0.00 | 0.51 | 0.05 | 99 | 1008.1 |
| 20260507090316 | 9 | 240 | 4.8 | 6.4 | 0.00 | 0.51 | 0.05 | 99 | 1008.1 |
| 20260507085824 | 9 | 248 | 8.0 | 11.3 | 0.00 | 0.51 | 0.05 | 99 | 1008.1 |
| 20260507085316 | 9 | 242 | 4.8 | 6.4 | 0.00 | 0.51 | 0.05 | 99 | 1007.9 |
| 20260507084905 | 9 | 195 | 3.2 | 3.2 | 0.00 | 0.51 | 0.05 | 99 | 1007.9 |
| 20260507084316 | 9 | 0.0 | 0.0 | 0.00 | 0.51 | 0.05 | 99 | 1007.7 | |
| 20260507083825 | 9 | 203 | 6.4 | 9.7 | 0.03 | 0.51 | 0.05 | 99 | 1007.7 |
| 20260507083316 | 10 | 234 | 8.0 | 8.0 | 0.03 | 0.51 | 0.05 | 99 | 1007.7 |
| 20260507082819 | 10 | 203 | 3.2 | 4.8 | 0.03 | 0.51 | 0.05 | 99 | 1007.5 |
| 20260507082336 | 10 | 259 | 4.8 | 8.0 | 0.03 | 0.51 | 0.05 | 99 | 1007.5 |
| 20260507081825 | 10 | 248 | 4.8 | 6.4 | 0.03 | 0.51 | 0.05 | 99 | 1007.4 |
| 20260507081356 | 10 | 225 | 4.8 | 4.8 | 0.03 | 0.51 | 0.05 | 99 | 1007.4 |
| 20260507080905 | 10 | 225 | 4.8 | 4.8 | 0.03 | 0.51 | 0.05 | 99 | 1007.5 |
| 20260507080316 | 10 | 195 | 3.2 | 4.8 | 0.03 | 0.51 | 0.05 | 99 | 1007.5 |
| 20260507075826 | 10 | 219 | 4.8 | 6.4 | 0.03 | 0.51 | 0.05 | 99 | 1007.5 |
| 20260507075317 | 10 | 244 | 4.8 | 6.4 | 0.03 | 0.51 | 0.05 | 99 | 1007.8 |
| 20260507074841 | 10 | 270 | 8.0 | 8.0 | 0.03 | 0.51 | 0.05 | 99 | 1007.8 |
| 20260507074350 | 10 | 191 | 9.7 | 12.9 | 0.03 | 0.51 | 0.05 | 99 | 1007.9 |
| 20260507073820 | 10 | 203 | 6.4 | 6.4 | 0.00 | 0.48 | 0.03 | 99 | 1007.9 |
| 20260507073330 | 11 | 203 | 4.8 | 4.8 | 0.00 | 0.48 | 0.03 | 99 | 1007.9 |
| 20260507072841 | -17 | 203 | 0.0 | 1.6 | 0.00 | 0.48 | 0.03 | 1007.2 | |
| 20260507072350 | 11 | 203 | 1.6 | 3.2 | 0.00 | 0.48 | 0.03 | 99 | 1007.2 |
| 20260507071841 | 11 | 229 | 4.8 | 4.8 | 0.00 | 0.48 | 0.03 | 99 | 1007.0 |
| 20260507071330 | 11 | 189 | 1.6 | 3.2 | 0.00 | 0.48 | 0.03 | 99 | 1007.0 |
| 20260507070330 | 11 | 191 | 3.2 | 3.2 | 0.00 | 0.48 | 0.03 | 99 | 1007.0 |
| 20260507065841 | 11 | 225 | 3.2 | 4.8 | 0.00 | 0.48 | 0.03 | 99 | 1007.0 |
| 20260507065319 | 11 | 203 | 3.2 | 4.8 | 0.00 | 0.48 | 0.03 | 99 | 1006.6 |
| 20260507064822 | 11 | 225 | 4.8 | 4.8 | 0.00 | 0.48 | 0.03 | 99 | 1006.6 |
| 20260507064319 | 11 | 230 | 4.8 | 6.4 | 0.00 | 0.48 | 0.03 | 99 | 1006.9 |
| 20260507063816 | 11 | 203 | 3.2 | 3.2 | 0.00 | 0.48 | 0.03 | 99 | 1006.9 |
| 20260507063319 | 11 | 203 | 6.4 | 6.4 | 0.00 | 0.48 | 0.03 | 99 | 1007.0 |
| 20260507062848 | 11 | 198 | 4.8 | 4.8 | 0.00 | 0.48 | 0.03 | 99 | 1007.0 |
| 20260507062320 | 11 | 165 | 6.4 | 6.4 | 0.00 | 0.48 | 0.03 | 99 | 1007.0 |
| 20260507061828 | 11 | 226 | 8.0 | 9.7 | 0.00 | 0.48 | 0.03 | 99 | 1006.7 |
| 20260507061339 | 11 | 248 | 6.4 | 8.0 | 0.00 | 0.48 | 0.03 | 99 | 1006.7 |
| 20260507060828 | 11 | 248 | 6.4 | 6.4 | 0.00 | 0.48 | 0.03 | 99 | 1006.7 |
| 20260507060319 | 11 | 237 | 6.4 | 8.0 | 0.00 | 0.48 | 0.03 | 99 | 1006.7 |
| 20260507055828 | 11 | 225 | 6.4 | 6.4 | 0.00 | 0.48 | 0.03 | 98 | 1006.7 |
| 20260507055319 | 11 | 242 | 6.4 | 8.0 | 0.00 | 0.48 | 0.03 | 98 | 1007.1 |
| 20260507054828 | 11 | 203 | 8.0 | 8.0 | 0.00 | 0.48 | 0.03 | 99 | 1007.1 |
| 20260507054319 | 11 | 248 | 6.4 | 8.0 | 0.00 | 0.48 | 0.03 | 99 | 1007.4 |
| 20260507053828 | 11 | 203 | 6.4 | 6.4 | 0.00 | 0.48 | 0.03 | 99 | 1007.4 |
| 20260507053319 | 11 | 204 | 6.4 | 8.0 | 0.00 | 0.48 | 0.03 | 99 | 1007.4 |
| 20260507052828 | 11 | 270 | 8.0 | 8.0 | 0.00 | 0.48 | 0.03 | 99 | 1007.1 |
| 20260507052319 | 12 | 203 | 9.7 | 14.5 | 0.00 | 0.48 | 0.03 | 99 | 1007.1 |
| 20260507051848 | 12 | 203 | 6.4 | 9.7 | 0.00 | 0.48 | 0.03 | 99 | 1007.3 |
| 20260507051319 | 12 | 180 | 8.0 | 9.7 | 0.00 | 0.48 | 0.03 | 99 | 1007.3 |
| 20260507050822 | 12 | 203 | 6.4 | 6.4 | 0.00 | 0.48 | 0.03 | 99 | 1007.0 |
| 20260507050319 | 12 | 214 | 9.7 | 9.7 | 0.00 | 0.48 | 0.03 | 99 | 1007.0 |
| 20260507045816 | 12 | 218 | 3.2 | 4.8 | 0.03 | 0.48 | 0.03 | 99 | 1007.0 |
| 20260507045319 | 12 | 203 | 1.6 | 4.8 | 0.08 | 0.48 | 0.03 | 99 | 1007.2 |
| 20260507044828 | 12 | 214 | 6.4 | 6.4 | 0.08 | 0.48 | 0.03 | 99 | 1007.2 |
| 20260507044319 | 12 | 203 | 3.2 | 4.8 | 0.08 | 0.48 | 0.03 | 99 | 1006.9 |
| 20260507043828 | 12 | 203 | 8.0 | 9.7 | 0.08 | 0.48 | 0.03 | 99 | 1006.9 |
| 20260507043319 | 12 | 203 | 9.7 | 11.3 | 0.08 | 0.48 | 0.03 | 99 | |
| 20260507042828 | 12 | 225 | 6.4 | 8.0 | 0.08 | 0.48 | 0.03 | 99 | 1006.9 |
| 20260507042319 | 12 | 270 | 6.4 | 6.4 | 0.08 | 0.48 | 0.03 | 99 | 1006.9 |
| 20260507041829 | 12 | 225 | 4.8 | 4.8 | 0.08 | 0.48 | 0.03 | 99 | 1006.9 |
| 20260507041320 | 12 | 229 | 9.7 | 11.3 | 0.08 | 0.48 | 0.03 | 99 | 1006.9 |
| 20260507040829 | 12 | 180 | 9.7 | 11.3 | 0.08 | 0.48 | 0.03 | 99 | 1007.0 |
| 20260507040321 | 13 | 210 | 12.9 | 19.3 | 0.08 | 0.48 | 0.03 | 99 | 1007.0 |
| 20260507035823 | 13 | 191 | 8.0 | 8.0 | 0.05 | 0.46 | 0.46 | 99 | 1007.0 |
| 20260507035332 | 13 | 225 | 6.4 | 9.7 | 0.00 | 0.41 | 0.41 | 99 | 1006.8 |
| 20260507034823 | 14 | 270 | 12.9 | 12.9 | 0.00 | 0.41 | 0.41 | 98 | 1006.8 |
| 20260507034352 | 14 | 180 | 16.1 | 19.3 | 0.03 | 0.41 | 0.41 | 98 | 1006.4 |
| 20260507033823 | 15 | 203 | 9.7 | 12.9 | 0.03 | 0.41 | 0.41 | 99 | 1006.4 |
| 20260507033327 | 15 | 158 | 4.8 | 6.4 | 0.03 | 0.41 | 0.41 | 99 | 1006.4 |
| 20260507032823 | 15 | 190 | 4.8 | 6.4 | 0.03 | 0.41 | 0.41 | 99 | 1006.4 |
| 20260507032340 | 15 | 43 | 6.4 | 9.7 | 0.03 | 0.41 | 0.41 | 99 | 1006.4 |
| 20260507031818 | 15 | 180 | 8.0 | 11.3 | 0.03 | 0.41 | 0.41 | 99 | 1006.0 |
| 20260507031413 | 15 | 203 | 9.7 | 12.9 | 0.03 | 0.41 | 0.41 | 99 | 1006.0 |
| 20260507030824 | 15 | 225 | 11.3 | 12.9 | 0.03 | 0.41 | 0.41 | 99 | 1005.7 |
| 20260507030332 | 15 | 204 | 3.2 | 3.2 | 0.03 | 0.41 | 0.41 | 99 | 1005.7 |
| 20260507025823 | 15 | 146 | 4.8 | 6.4 | 0.03 | 0.41 | 0.41 | 99 | 1005.7 |
| 20260507025332 | 15 | 158 | 3.2 | 4.8 | 0.03 | 0.41 | 0.41 | 99 | 1005.9 |
| 20260507024823 | 15 | 158 | 9.7 | 9.7 | 0.03 | 0.41 | 0.41 | 99 | 1005.9 |
| 20260507024333 | 15 | 125 | 8.0 | 11.3 | 0.00 | 0.38 | 0.38 | 99 | 1005.8 |
| 20260507023824 | 15 | 158 | 6.4 | 8.0 | 0.00 | 0.38 | 0.38 | 99 | 1005.8 |
| 20260507023335 | 15 | 113 | 3.2 | 4.8 | 0.00 | 0.38 | 0.38 | 99 | 1005.8 |
| 20260507022838 | 15 | 113 | 4.8 | 4.8 | 0.00 | 0.38 | 0.38 | 99 | 1005.8 |
| 20260507022328 | 15 | 90 | 3.2 | 4.8 | 0.00 | 0.38 | 0.38 | 99 | 1005.8 |
| 20260507021819 | 15 | 180 | 4.8 | 6.4 | 0.00 | 0.38 | 0.38 | 99 | 1005.6 |
| 20260507021323 | 15 | 90 | 3.2 | 3.2 | 0.00 | 0.38 | 0.38 | 99 | 1005.6 |
| 20260507020831 | 15 | 68 | 1.6 | 1.6 | 0.00 | 0.38 | 0.38 | 99 | 1005.7 |
| 20260507020341 | 15 | 70 | 4.8 | 4.8 | 0.00 | 0.38 | 0.38 | 99 | 1005.7 |
| 20260507015851 | 15 | 113 | 3.2 | 4.8 | 0.00 | 0.38 | 0.38 | 99 | 1005.7 |
| 20260507015322 | 15 | 113 | 3.2 | 3.2 | 0.00 | 0.38 | 0.38 | 99 | 1005.7 |
| 20260507014824 | 15 | 113 | 6.4 | 6.4 | 0.00 | 0.38 | 0.38 | 99 | 1005.7 |
| 20260507014318 | 15 | 113 | 1.6 | 3.2 | 0.00 | 0.38 | 0.38 | 99 | 1005.8 |
| 20260507013846 | 15 | 0.0 | 0.0 | 0.00 | 0.38 | 0.38 | 99 | 1005.8 | |
| 20260507013317 | 15 | 107 | 4.8 | 6.4 | 0.00 | 0.38 | 0.38 | 99 | 1005.7 |
| 20260507012827 | 15 | 125 | 4.8 | 6.4 | 0.00 | 0.38 | 0.38 | 99 | 1005.7 |
| 20260507012318 | 15 | 166 | 3.2 | 6.4 | 0.00 | 0.38 | 0.38 | 99 | 1005.7 |
| 20260507011827 | 15 | 84 | 4.8 | 6.4 | 0.00 | 0.38 | 0.38 | 99 | 1005.8 |
| 20260507011330 | 15 | 68 | 1.6 | 3.2 | 0.00 | 0.38 | 0.38 | 99 | 1005.8 |
| 20260507010822 | 15 | 45 | 6.4 | 8.0 | 0.00 | 0.38 | 0.38 | 99 | 1005.9 |
| 20260507010331 | 15 | 68 | 4.8 | 4.8 | 0.00 | 0.38 | 0.38 | 99 | 1005.9 |
| 20260507005822 | 15 | 113 | 4.8 | 4.8 | 0.00 | 0.38 | 0.38 | 99 | 1005.9 |
| 20260507005331 | 15 | 158 | 3.2 | 4.8 | 0.00 | 0.38 | 0.38 | 99 | 1005.8 |
| 20260507004822 | 15 | 88 | 6.4 | 6.4 | 0.00 | 0.38 | 0.38 | 99 | 1005.8 |
| 20260507004351 | 15 | 135 | 6.4 | 8.0 | 0.00 | 0.38 | 0.38 | 99 | 1005.7 |
| 20260507003822 | 15 | 32 | 8.0 | 9.7 | 0.00 | 0.38 | 0.38 | 99 | 1005.7 |
| 20260507003331 | 15 | 39 | 8.0 | 9.7 | 0.00 | 0.38 | 0.38 | 99 | 1005.7 |
| 20260507002817 | 15 | 37 | 8.0 | 11.3 | 0.00 | 0.38 | 0.38 | 99 | 1005.7 |
| 20260507002326 | 15 | 68 | 6.4 | 6.4 | 0.00 | 0.38 | 0.38 | 99 | 1005.7 |
| 20260507001817 | 15 | 45 | 4.8 | 4.8 | 0.00 | 0.38 | 0.38 | 99 | 1005.7 |
| 20260507001326 | 15 | 45 | 4.8 | 6.4 | 0.03 | 0.38 | 0.38 | 99 | 1005.7 |
| 20260507000815 | 15 | 225 | 6.4 | 8.0 | 0.03 | 0.38 | 0.38 | 99 | 1005.6 |
| 20260507000338 | 15 | 68 | 4.8 | 6.4 | 0.05 | 0.38 | 0.38 | 99 | 1005.6 |
| 20260506235816 | 15 | 56 | 4.8 | 6.4 | 0.08 | 0.38 | 0.38 | 99 | 1005.6 |
| 20260506235320 | 15 | 23 | 6.4 | 8.0 | 0.10 | 0.38 | 0.38 | 99 | 1005.5 |
| 20260506234826 | 15 | 338 | 6.4 | 6.4 | 0.10 | 0.38 | 0.38 | 99 | 1005.5 |
| 20260506234317 | 15 | 102 | 6.4 | 8.0 | 0.13 | 0.38 | 0.38 | 99 | 1005.5 |
| 20260506233826 | 15 | 113 | 6.4 | 8.0 | 0.13 | 0.38 | 0.38 | 99 | 1005.5 |
| 20260506233318 | 15 | 122 | 6.4 | 8.0 | 0.13 | 0.38 | 0.38 | 99 | 1005.5 |
| 20260506232820 | 15 | 68 | 6.4 | 6.4 | 0.15 | 0.38 | 0.38 | 99 | 1005.4 |
| 20260506232328 | 15 | 90 | 4.8 | 6.4 | 0.18 | 0.38 | 0.38 | 99 | 1005.4 |
| 20260506231819 | 15 | 52 | 6.4 | 9.7 | 0.18 | 0.38 | 0.38 | 99 | 1005.5 |
| 20260506231326 | 15 | 45 | 4.8 | 6.4 | 0.15 | 0.36 | 0.36 | 99 | 1005.5 |
| 20260506230830 | 15 | 68 | 6.4 | 8.0 | 0.15 | 0.36 | 0.36 | 99 | 1005.6 |
| 20260506230321 | 15 | 45 | 8.0 | 12.9 | 0.13 | 0.33 | 0.33 | 99 | 1005.6 |
| 20260506225830 | 15 | 113 | 6.4 | 9.7 | 0.10 | 0.30 | 0.30 | 99 | 1005.6 |
| 20260506225322 | -17 | 82 | 4.8 | 4.8 | 0.08 | 0.28 | 0.28 | 1005.7 | |
| 20260506224831 | 15 | 118 | 4.8 | 6.4 | 0.08 | 0.28 | 0.28 | 99 | 1005.7 |
| 20260506224322 | 15 | 101 | 4.8 | 4.8 | 0.05 | 0.25 | 0.25 | 99 | 1005.6 |
| 20260506223823 | 15 | 23 | 9.7 | 12.9 | 0.05 | 0.25 | 0.25 | 99 | 1005.6 |
| 20260506223320 | 15 | 98 | 6.4 | 8.0 | 0.05 | 0.25 | 0.25 | 99 | 1005.7 |
| 20260506222817 | 15 | 68 | 4.8 | 6.4 | 0.03 | 0.23 | 0.23 | 99 | 1005.7 |
| 20260506222341 | 15 | 68 | 8.0 | 9.7 | 0.00 | 0.20 | 0.20 | 99 | 1005.7 |
| 20260506221830 | 15 | 90 | 6.4 | 8.0 | 0.00 | 0.20 | 0.20 | 99 | 1005.8 |
| 20260506221321 | 15 | 45 | 8.0 | 8.0 | 0.00 | 0.20 | 0.20 | 99 | 1005.8 |
| 20260506220843 | 15 | 68 | 4.8 | 6.4 | 0.00 | 0.20 | 0.20 | 99 | 1005.9 |
| 20260506220352 | 15 | 31 | 6.4 | 8.0 | 0.00 | 0.20 | 0.20 | 99 | 1005.9 |
| 20260506215823 | 15 | 56 | 6.4 | 8.0 | 0.00 | 0.20 | 0.20 | 99 | 1005.9 |
| 20260506215333 | 15 | 81 | 6.4 | 8.0 | 0.03 | 0.20 | 0.20 | 99 | 1006.0 |
| 20260506214824 | 15 | 58 | 9.7 | 11.3 | 0.03 | 0.20 | 0.20 | 99 | 1006.0 |
| 20260506214333 | 15 | 8.0 | 8.0 | 0.03 | 0.20 | 0.20 | 99 | 1006.0 | |
| 20260506213838 | 15 | 68 | 9.7 | 11.3 | 0.03 | 0.20 | 0.20 | 99 | 1006.0 |
| 20260506213327 | 15 | 68 | 6.4 | 9.7 | 0.05 | 0.20 | 0.20 | 99 | 1006.0 |
| 20260506212817 | 15 | 71 | 6.4 | 6.4 | 0.05 | 0.20 | 0.20 | 99 | 1006.1 |
| 20260506212325 | 15 | 68 | 11.3 | 12.9 | 0.05 | 0.20 | 0.20 | 99 | 1006.1 |
| 20260506211817 | 15 | 70 | 8.0 | 9.7 | 0.05 | 0.20 | 0.20 | 99 | 1006.3 |
| 20260506211326 | 15 | 92 | 6.4 | 9.7 | 0.08 | 0.20 | 0.20 | 99 | 1006.3 |
| 20260506210817 | 15 | 75 | 8.0 | 9.7 | 0.08 | 0.20 | 0.20 | 99 | 1006.4 |
| 20260506210326 | 15 | 77 | 8.0 | 9.7 | 0.08 | 0.20 | 0.20 | 99 | 1006.4 |
| 20260506205817 | 15 | 76 | 9.7 | 11.3 | 0.10 | 0.20 | 0.20 | 99 | 1006.4 |
| 20260506205321 | 16 | 68 | 6.4 | 8.0 | 0.08 | 0.18 | 0.18 | 99 | 1006.5 |
| 20260506204817 | 16 | 45 | 4.8 | 6.4 | 0.08 | 0.18 | 0.18 | 99 | 1006.5 |
| 20260506204320 | 16 | 8.0 | 8.0 | 0.08 | 0.18 | 0.18 | 99 | 1006.6 | |
| 20260506203829 | 16 | 113 | 9.7 | 9.7 | 0.08 | 0.18 | 0.18 | 99 | 1006.6 |
| 20260506203340 | 16 | 194 | 8.0 | 9.7 | 0.05 | 0.15 | 0.15 | 99 | 1006.5 |
| 20260506202828 | 16 | 113 | 14.5 | 17.7 | 0.05 | 0.15 | 0.15 | 99 | 1006.5 |
| 20260506202320 | 16 | 82 | 12.9 | 16.1 | 0.08 | 0.15 | 0.15 | 99 | 1006.5 |
| 20260506201823 | 16 | 124 | 9.7 | 9.7 | 0.08 | 0.15 | 0.15 | 99 | 1006.2 |
| 20260506201328 | 16 | 55 | 6.4 | 8.0 | 0.08 | 0.13 | 0.13 | 99 | 1006.2 |